sensor_id;sensor_type;location;lat;lon;timestamp;P1;durP1;ratioP1;P2;durP2;ratioP2
64842;SDS011;51310;52.198;5.422;2022-10-16T00:01:25;5.13;;;1.48;;
64842;SDS011;51310;52.198;5.422;2022-10-16T00:03:55;8.93;;;1.90;;
64842;SDS011;51310;52.198;5.422;2022-10-16T00:06:24;5.07;;;1.85;;
64842;SDS011;51310;52.198;5.422;2022-10-16T00:08:52;5.82;;;2.28;;
64842;SDS011;51310;52.198;5.422;2022-10-16T00:11:20;5.32;;;1.73;;
64842;SDS011;51310;52.198;5.422;2022-10-16T00:13:58;8.20;;;2.10;;
64842;SDS011;51310;52.198;5.422;2022-10-16T00:16:26;7.80;;;2.25;;
64842;SDS011;51310;52.198;5.422;2022-10-16T00:18:53;3.13;;;1.33;;
64842;SDS011;51310;52.198;5.422;2022-10-16T00:21:22;7.90;;;1.83;;
64842;SDS011;51310;52.198;5.422;2022-10-16T00:24:03;5.53;;;1.85;;
64842;SDS011;51310;52.198;5.422;2022-10-16T00:26:33;7.75;;;2.40;;
64842;SDS011;51310;52.198;5.422;2022-10-16T00:29:02;8.02;;;1.80;;
64842;SDS011;51310;52.198;5.422;2022-10-16T00:31:29;6.82;;;2.15;;
64842;SDS011;51310;52.198;5.422;2022-10-16T00:33:56;6.45;;;2.10;;
64842;SDS011;51310;52.198;5.422;2022-10-16T00:36:23;7.30;;;2.08;;
64842;SDS011;51310;52.198;5.422;2022-10-16T00:38:51;6.40;;;2.27;;
64842;SDS011;51310;52.198;5.422;2022-10-16T00:41:21;7.22;;;2.25;;
64842;SDS011;51310;52.198;5.422;2022-10-16T00:43:53;9.35;;;1.90;;
64842;SDS011;51310;52.198;5.422;2022-10-16T00:46:27;6.75;;;2.13;;
64842;SDS011;51310;52.198;5.422;2022-10-16T00:51:43;6.35;;;1.77;;
64842;SDS011;51310;52.198;5.422;2022-10-16T00:54:19;5.82;;;2.00;;
64842;SDS011;51310;52.198;5.422;2022-10-16T00:56:51;4.18;;;1.88;;
64842;SDS011;51310;52.198;5.422;2022-10-16T00:59:30;7.18;;;2.13;;
64842;SDS011;51310;52.198;5.422;2022-10-16T01:02:02;6.32;;;2.25;;
64842;SDS011;51310;52.198;5.422;2022-10-16T01:04:35;3.92;;;2.10;;
64842;SDS011;51310;52.198;5.422;2022-10-16T01:10:27;5.03;;;2.22;;
64842;SDS011;51310;52.198;5.422;2022-10-16T01:13:15;7.68;;;3.13;;
64842;SDS011;51310;52.198;5.422;2022-10-16T01:15:54;5.05;;;2.60;;
64842;SDS011;51310;52.198;5.422;2022-10-16T01:18:42;6.93;;;2.28;;
64842;SDS011;51310;52.198;5.422;2022-10-16T01:21:14;5.03;;;2.30;;
64842;SDS011;51310;52.198;5.422;2022-10-16T01:24:03;5.95;;;1.95;;
64842;SDS011;51310;52.198;5.422;2022-10-16T01:27:15;8.35;;;1.98;;
64842;SDS011;51310;52.198;5.422;2022-10-16T01:29:59;4.75;;;1.90;;
64842;SDS011;51310;52.198;5.422;2022-10-16T01:35:39;4.65;;;2.15;;
64842;SDS011;51310;52.198;5.422;2022-10-16T01:38:28;4.40;;;2.00;;
64842;SDS011;51310;52.198;5.422;2022-10-16T01:41:04;6.78;;;2.80;;
64842;SDS011;51310;52.198;5.422;2022-10-16T01:43:58;6.95;;;2.20;;
64842;SDS011;51310;52.198;5.422;2022-10-16T01:46:38;8.63;;;2.23;;
64842;SDS011;51310;52.198;5.422;2022-10-16T01:49:08;5.25;;;2.38;;
64842;SDS011;51310;52.198;5.422;2022-10-16T01:51:37;5.68;;;2.35;;
64842;SDS011;51310;52.198;5.422;2022-10-16T01:54:03;6.32;;;2.63;;
64842;SDS011;51310;52.198;5.422;2022-10-16T01:56:33;5.30;;;2.28;;
64842;SDS011;51310;52.198;5.422;2022-10-16T01:59:03;8.10;;;2.80;;
64842;SDS011;51310;52.198;5.422;2022-10-16T02:01:39;5.43;;;2.40;;
64842;SDS011;51310;52.198;5.422;2022-10-16T02:04:26;5.25;;;2.70;;
64842;SDS011;51310;52.198;5.422;2022-10-16T02:07:02;4.55;;;2.33;;
64842;SDS011;51310;52.198;5.422;2022-10-16T02:09:29;8.57;;;2.95;;
64842;SDS011;51310;52.198;5.422;2022-10-16T02:11:58;4.05;;;2.20;;
64842;SDS011;51310;52.198;5.422;2022-10-16T02:14:52;5.97;;;2.85;;
64842;SDS011;51310;52.198;5.422;2022-10-16T02:17:19;6.33;;;3.03;;
64842;SDS011;51310;52.198;5.422;2022-10-16T02:19:46;6.72;;;2.78;;
64842;SDS011;51310;52.198;5.422;2022-10-16T02:22:22;6.90;;;2.50;;
64842;SDS011;51310;52.198;5.422;2022-10-16T02:25:09;7.60;;;3.23;;
64842;SDS011;51310;52.198;5.422;2022-10-16T02:30:41;6.47;;;2.88;;
64842;SDS011;51310;52.198;5.422;2022-10-16T02:33:24;5.15;;;3.00;;
64842;SDS011;51310;52.198;5.422;2022-10-16T02:35:53;8.80;;;3.27;;
64842;SDS011;51310;52.198;5.422;2022-10-16T02:38:21;4.72;;;2.50;;
64842;SDS011;51310;52.198;5.422;2022-10-16T02:40:49;5.95;;;2.45;;
64842;SDS011;51310;52.198;5.422;2022-10-16T02:43:16;6.20;;;2.90;;
64842;SDS011;51310;52.198;5.422;2022-10-16T02:45:42;4.75;;;2.50;;
64842;SDS011;51310;52.198;5.422;2022-10-16T02:48:08;4.70;;;2.77;;
64842;SDS011;51310;52.198;5.422;2022-10-16T02:50:34;5.47;;;2.60;;
64842;SDS011;51310;52.198;5.422;2022-10-16T02:53:00;7.45;;;2.67;;
64842;SDS011;51310;52.198;5.422;2022-10-16T02:55:26;5.20;;;2.50;;
64842;SDS011;51310;52.198;5.422;2022-10-16T02:57:53;5.30;;;2.45;;
64842;SDS011;51310;52.198;5.422;2022-10-16T03:00:19;4.45;;;2.45;;
64842;SDS011;51310;52.198;5.422;2022-10-16T03:02:45;5.28;;;2.20;;
64842;SDS011;51310;52.198;5.422;2022-10-16T03:05:12;5.45;;;2.47;;
64842;SDS011;51310;52.198;5.422;2022-10-16T03:07:39;4.28;;;2.70;;
64842;SDS011;51310;52.198;5.422;2022-10-16T03:10:05;4.90;;;2.38;;
64842;SDS011;51310;52.198;5.422;2022-10-16T03:12:32;6.72;;;2.20;;
64842;SDS011;51310;52.198;5.422;2022-10-16T03:14:57;4.43;;;2.23;;
64842;SDS011;51310;52.198;5.422;2022-10-16T03:17:24;6.63;;;2.50;;
64842;SDS011;51310;52.198;5.422;2022-10-16T03:19:50;6.25;;;2.10;;
64842;SDS011;51310;52.198;5.422;2022-10-16T03:22:16;3.57;;;1.90;;
64842;SDS011;51310;52.198;5.422;2022-10-16T03:24:42;9.17;;;2.30;;
64842;SDS011;51310;52.198;5.422;2022-10-16T03:27:08;3.47;;;1.90;;
64842;SDS011;51310;52.198;5.422;2022-10-16T03:29:34;5.55;;;2.60;;
64842;SDS011;51310;52.198;5.422;2022-10-16T03:32:00;4.57;;;2.40;;
64842;SDS011;51310;52.198;5.422;2022-10-16T03:34:27;4.22;;;2.20;;
64842;SDS011;51310;52.198;5.422;2022-10-16T03:36:53;4.38;;;2.28;;
64842;SDS011;51310;52.198;5.422;2022-10-16T03:39:19;4.05;;;2.17;;
64842;SDS011;51310;52.198;5.422;2022-10-16T03:41:45;4.63;;;2.33;;
64842;SDS011;51310;52.198;5.422;2022-10-16T03:44:11;5.32;;;2.15;;
64842;SDS011;51310;52.198;5.422;2022-10-16T03:46:38;4.00;;;2.10;;
64842;SDS011;51310;52.198;5.422;2022-10-16T03:49:04;6.15;;;2.22;;
64842;SDS011;51310;52.198;5.422;2022-10-16T03:51:29;8.05;;;2.33;;
64842;SDS011;51310;52.198;5.422;2022-10-16T03:53:55;5.68;;;2.00;;
64842;SDS011;51310;52.198;5.422;2022-10-16T03:56:21;4.37;;;2.00;;
64842;SDS011;51310;52.198;5.422;2022-10-16T03:58:47;5.00;;;1.70;;
64842;SDS011;51310;52.198;5.422;2022-10-16T04:01:14;5.03;;;2.27;;
64842;SDS011;51310;52.198;5.422;2022-10-16T04:03:40;5.72;;;2.28;;
64842;SDS011;51310;52.198;5.422;2022-10-16T04:06:06;4.07;;;2.15;;
64842;SDS011;51310;52.198;5.422;2022-10-16T04:08:32;4.13;;;1.98;;
64842;SDS011;51310;52.198;5.422;2022-10-16T04:11:00;5.03;;;1.92;;
64842;SDS011;51310;52.198;5.422;2022-10-16T04:13:26;5.70;;;2.05;;
64842;SDS011;51310;52.198;5.422;2022-10-16T04:15:52;5.30;;;2.30;;
64842;SDS011;51310;52.198;5.422;2022-10-16T04:18:18;7.10;;;1.95;;
64842;SDS011;51310;52.198;5.422;2022-10-16T04:20:43;4.90;;;2.08;;
64842;SDS011;51310;52.198;5.422;2022-10-16T04:23:09;3.35;;;1.85;;
64842;SDS011;51310;52.198;5.422;2022-10-16T04:25:35;4.57;;;1.80;;
64842;SDS011;51310;52.198;5.422;2022-10-16T04:28:01;3.55;;;1.77;;
64842;SDS011;51310;52.198;5.422;2022-10-16T04:30:27;4.72;;;2.33;;
64842;SDS011;51310;52.198;5.422;2022-10-16T04:32:53;5.78;;;2.15;;
64842;SDS011;51310;52.198;5.422;2022-10-16T04:35:20;4.25;;;1.70;;
64842;SDS011;51310;52.198;5.422;2022-10-16T04:37:47;4.00;;;2.05;;
64842;SDS011;51310;52.198;5.422;2022-10-16T04:40:13;5.13;;;1.90;;
64842;SDS011;51310;52.198;5.422;2022-10-16T04:42:39;5.10;;;1.80;;
64842;SDS011;51310;52.198;5.422;2022-10-16T04:45:06;6.20;;;1.80;;
64842;SDS011;51310;52.198;5.422;2022-10-16T04:47:33;2.47;;;1.70;;
64842;SDS011;51310;52.198;5.422;2022-10-16T04:49:59;5.05;;;1.63;;
64842;SDS011;51310;52.198;5.422;2022-10-16T04:52:27;4.53;;;1.80;;
64842;SDS011;51310;52.198;5.422;2022-10-16T04:54:53;2.53;;;1.55;;
64842;SDS011;51310;52.198;5.422;2022-10-16T04:57:21;4.30;;;1.50;;
64842;SDS011;51310;52.198;5.422;2022-10-16T04:59:47;2.75;;;1.80;;
64842;SDS011;51310;52.198;5.422;2022-10-16T05:02:13;3.85;;;1.80;;
64842;SDS011;51310;52.198;5.422;2022-10-16T05:04:39;4.53;;;1.67;;
64842;SDS011;51310;52.198;5.422;2022-10-16T05:07:05;4.70;;;2.00;;
64842;SDS011;51310;52.198;5.422;2022-10-16T05:09:31;3.67;;;1.95;;
64842;SDS011;51310;52.198;5.422;2022-10-16T05:11:57;5.28;;;2.00;;
64842;SDS011;51310;52.198;5.422;2022-10-16T05:14:22;3.83;;;1.85;;
64842;SDS011;51310;52.198;5.422;2022-10-16T05:16:48;5.00;;;1.90;;
64842;SDS011;51310;52.198;5.422;2022-10-16T05:19:14;3.15;;;1.80;;
64842;SDS011;51310;52.198;5.422;2022-10-16T05:21:40;4.70;;;1.60;;
64842;SDS011;51310;52.198;5.422;2022-10-16T05:24:06;5.50;;;2.28;;
64842;SDS011;51310;52.198;5.422;2022-10-16T05:26:32;6.65;;;2.03;;
64842;SDS011;51310;52.198;5.422;2022-10-16T05:28:58;4.47;;;1.60;;
64842;SDS011;51310;52.198;5.422;2022-10-16T05:31:23;4.43;;;1.88;;
64842;SDS011;51310;52.198;5.422;2022-10-16T05:33:49;6.50;;;2.20;;
64842;SDS011;51310;52.198;5.422;2022-10-16T05:36:15;3.95;;;2.03;;
64842;SDS011;51310;52.198;5.422;2022-10-16T05:38:43;5.40;;;2.38;;
64842;SDS011;51310;52.198;5.422;2022-10-16T05:41:08;4.43;;;2.00;;
64842;SDS011;51310;52.198;5.422;2022-10-16T05:43:34;4.50;;;2.10;;
64842;SDS011;51310;52.198;5.422;2022-10-16T05:46:03;3.15;;;1.95;;
64842;SDS011;51310;52.198;5.422;2022-10-16T05:48:31;6.35;;;2.05;;
64842;SDS011;51310;52.198;5.422;2022-10-16T05:50:58;3.97;;;1.85;;
64842;SDS011;51310;52.198;5.422;2022-10-16T05:53:32;6.60;;;2.33;;
64842;SDS011;51310;52.198;5.422;2022-10-16T05:56:01;4.63;;;2.60;;
64842;SDS011;51310;52.198;5.422;2022-10-16T05:58:29;8.07;;;2.00;;
64842;SDS011;51310;52.198;5.422;2022-10-16T06:01:04;7.35;;;2.30;;
64842;SDS011;51310;52.198;5.422;2022-10-16T06:03:36;6.40;;;2.10;;
64842;SDS011;51310;52.198;5.422;2022-10-16T06:06:10;5.88;;;2.70;;
64842;SDS011;51310;52.198;5.422;2022-10-16T06:08:48;5.63;;;2.30;;
64842;SDS011;51310;52.198;5.422;2022-10-16T06:11:16;5.07;;;2.15;;
64842;SDS011;51310;52.198;5.422;2022-10-16T06:13:49;3.72;;;1.90;;
64842;SDS011;51310;52.198;5.422;2022-10-16T06:16:25;4.90;;;2.00;;
64842;SDS011;51310;52.198;5.422;2022-10-16T06:18:52;6.03;;;2.15;;
64842;SDS011;51310;52.198;5.422;2022-10-16T06:21:21;3.72;;;2.20;;
64842;SDS011;51310;52.198;5.422;2022-10-16T06:23:50;6.93;;;2.50;;
64842;SDS011;51310;52.198;5.422;2022-10-16T06:26:18;5.18;;;2.63;;
64842;SDS011;51310;52.198;5.422;2022-10-16T06:28:50;4.90;;;2.38;;
64842;SDS011;51310;52.198;5.422;2022-10-16T06:31:16;4.85;;;2.10;;
64842;SDS011;51310;52.198;5.422;2022-10-16T06:33:42;5.32;;;1.90;;
64842;SDS011;51310;52.198;5.422;2022-10-16T06:36:12;4.18;;;2.13;;
64842;SDS011;51310;52.198;5.422;2022-10-16T06:38:41;4.75;;;2.45;;
64842;SDS011;51310;52.198;5.422;2022-10-16T06:41:09;4.03;;;2.15;;
64842;SDS011;51310;52.198;5.422;2022-10-16T06:43:42;6.20;;;2.65;;
64842;SDS011;51310;52.198;5.422;2022-10-16T06:46:12;6.15;;;2.40;;
64842;SDS011;51310;52.198;5.422;2022-10-16T06:48:44;6.25;;;2.65;;
64842;SDS011;51310;52.198;5.422;2022-10-16T06:51:12;4.07;;;2.50;;
64842;SDS011;51310;52.198;5.422;2022-10-16T06:53:42;5.95;;;2.42;;
64842;SDS011;51310;52.198;5.422;2022-10-16T06:56:20;4.77;;;2.37;;
64842;SDS011;51310;52.198;5.422;2022-10-16T06:58:49;5.53;;;2.75;;
64842;SDS011;51310;52.198;5.422;2022-10-16T07:01:18;3.83;;;1.95;;
64842;SDS011;51310;52.198;5.422;2022-10-16T07:03:47;3.83;;;2.45;;
64842;SDS011;51310;52.198;5.422;2022-10-16T07:06:15;5.72;;;2.33;;
64842;SDS011;51310;52.198;5.422;2022-10-16T07:08:45;5.00;;;2.22;;
64842;SDS011;51310;52.198;5.422;2022-10-16T07:11:14;9.18;;;2.20;;
64842;SDS011;51310;52.198;5.422;2022-10-16T07:13:46;10.27;;;2.42;;
64842;SDS011;51310;52.198;5.422;2022-10-16T07:16:14;6.57;;;2.20;;
64842;SDS011;51310;52.198;5.422;2022-10-16T07:18:44;4.53;;;2.00;;
64842;SDS011;51310;52.198;5.422;2022-10-16T07:21:14;4.35;;;1.98;;
64842;SDS011;51310;52.198;5.422;2022-10-16T07:23:44;4.32;;;1.83;;
64842;SDS011;51310;52.198;5.422;2022-10-16T07:26:11;4.38;;;1.88;;
64842;SDS011;51310;52.198;5.422;2022-10-16T07:28:37;8.82;;;3.30;;
64842;SDS011;51310;52.198;5.422;2022-10-16T07:31:05;4.18;;;1.80;;
64842;SDS011;51310;52.198;5.422;2022-10-16T07:33:36;5.95;;;2.28;;
64842;SDS011;51310;52.198;5.422;2022-10-16T07:36:05;5.47;;;1.73;;
64842;SDS011;51310;52.198;5.422;2022-10-16T07:38:31;4.20;;;1.65;;
64842;SDS011;51310;52.198;5.422;2022-10-16T07:40:58;6.07;;;1.55;;
64842;SDS011;51310;52.198;5.422;2022-10-16T07:43:26;4.57;;;1.63;;
64842;SDS011;51310;52.198;5.422;2022-10-16T07:45:53;3.95;;;1.65;;
64842;SDS011;51310;52.198;5.422;2022-10-16T07:48:20;4.97;;;1.70;;
64842;SDS011;51310;52.198;5.422;2022-10-16T07:50:47;7.18;;;1.65;;
64842;SDS011;51310;52.198;5.422;2022-10-16T07:53:14;3.78;;;1.70;;
64842;SDS011;51310;52.198;5.422;2022-10-16T07:55:40;7.07;;;1.63;;
64842;SDS011;51310;52.198;5.422;2022-10-16T07:58:06;3.53;;;1.47;;
64842;SDS011;51310;52.198;5.422;2022-10-16T08:00:33;4.45;;;1.67;;
64842;SDS011;51310;52.198;5.422;2022-10-16T08:03:00;5.15;;;1.42;;
64842;SDS011;51310;52.198;5.422;2022-10-16T08:05:27;5.03;;;1.70;;
64842;SDS011;51310;52.198;5.422;2022-10-16T08:07:56;6.10;;;1.60;;
64842;SDS011;51310;52.198;5.422;2022-10-16T08:10:23;6.53;;;2.08;;
64842;SDS011;51310;52.198;5.422;2022-10-16T08:12:52;6.03;;;2.08;;
64842;SDS011;51310;52.198;5.422;2022-10-16T08:15:18;6.22;;;2.20;;
64842;SDS011;51310;52.198;5.422;2022-10-16T08:17:58;4.80;;;2.08;;
64842;SDS011;51310;52.198;5.422;2022-10-16T08:20:30;4.78;;;1.90;;
64842;SDS011;51310;52.198;5.422;2022-10-16T08:23:01;5.80;;;2.37;;
64842;SDS011;51310;52.198;5.422;2022-10-16T08:25:28;4.50;;;2.15;;
64842;SDS011;51310;52.198;5.422;2022-10-16T08:27:54;5.68;;;2.13;;
64842;SDS011;51310;52.198;5.422;2022-10-16T08:30:21;7.90;;;2.60;;
64842;SDS011;51310;52.198;5.422;2022-10-16T08:32:49;6.85;;;2.50;;
64842;SDS011;51310;52.198;5.422;2022-10-16T08:35:15;7.30;;;2.53;;
64842;SDS011;51310;52.198;5.422;2022-10-16T08:37:42;7.40;;;2.53;;
64842;SDS011;51310;52.198;5.422;2022-10-16T08:48:55;6.10;;;2.28;;
64842;SDS011;51310;52.198;5.422;2022-10-16T08:51:31;4.80;;;2.47;;
64842;SDS011;51310;52.198;5.422;2022-10-16T08:57:24;10.10;;;2.40;;
64842;SDS011;51310;52.198;5.422;2022-10-16T08:59:55;10.40;;;2.05;;
64842;SDS011;51310;52.198;5.422;2022-10-16T09:09:00;6.13;;;1.80;;
64842;SDS011;51310;52.198;5.422;2022-10-16T09:17:39;8.70;;;1.63;;
64842;SDS011;51310;52.198;5.422;2022-10-16T09:23:27;10.50;;;1.98;;
64842;SDS011;51310;52.198;5.422;2022-10-16T09:25:58;15.18;;;2.58;;
64842;SDS011;51310;52.198;5.422;2022-10-16T09:28:24;11.88;;;2.58;;
64842;SDS011;51310;52.198;5.422;2022-10-16T09:30:51;7.53;;;1.88;;
64842;SDS011;51310;52.198;5.422;2022-10-16T09:33:18;8.68;;;2.55;;
64842;SDS011;51310;52.198;5.422;2022-10-16T09:35:50;6.70;;;1.70;;
64842;SDS011;51310;52.198;5.422;2022-10-16T09:41:01;9.63;;;1.90;;
64842;SDS011;51310;52.198;5.422;2022-10-16T09:43:42;5.95;;;2.00;;
64842;SDS011;51310;52.198;5.422;2022-10-16T09:46:31;12.50;;;2.00;;
64842;SDS011;51310;52.198;5.422;2022-10-16T09:49:02;6.47;;;2.13;;
64842;SDS011;51310;52.198;5.422;2022-10-16T09:51:46;7.40;;;1.70;;
64842;SDS011;51310;52.198;5.422;2022-10-16T09:54:13;6.75;;;2.30;;
64842;SDS011;51310;52.198;5.422;2022-10-16T09:56:44;8.15;;;2.15;;
64842;SDS011;51310;52.198;5.422;2022-10-16T09:59:14;11.20;;;2.50;;
64842;SDS011;51310;52.198;5.422;2022-10-16T10:01:47;11.07;;;2.22;;
64842;SDS011;51310;52.198;5.422;2022-10-16T10:04:18;10.63;;;1.80;;
64842;SDS011;51310;52.198;5.422;2022-10-16T10:06:51;9.65;;;2.00;;
64842;SDS011;51310;52.198;5.422;2022-10-16T10:09:24;11.03;;;1.93;;
64842;SDS011;51310;52.198;5.422;2022-10-16T10:12:03;14.32;;;2.60;;
64842;SDS011;51310;52.198;5.422;2022-10-16T10:14:41;8.73;;;1.90;;
64842;SDS011;51310;52.198;5.422;2022-10-16T10:17:29;9.45;;;2.05;;
64842;SDS011;51310;52.198;5.422;2022-10-16T10:19:56;9.77;;;2.15;;
64842;SDS011;51310;52.198;5.422;2022-10-16T10:25:12;9.85;;;2.42;;
64842;SDS011;51310;52.198;5.422;2022-10-16T10:33:47;8.60;;;1.88;;
64842;SDS011;51310;52.198;5.422;2022-10-16T10:36:39;10.85;;;2.33;;
64842;SDS011;51310;52.198;5.422;2022-10-16T10:45:25;9.95;;;1.98;;
64842;SDS011;51310;52.198;5.422;2022-10-16T10:51:01;7.30;;;2.38;;
64842;SDS011;51310;52.198;5.422;2022-10-16T10:53:48;11.60;;;2.22;;
64842;SDS011;51310;52.198;5.422;2022-10-16T10:56:57;11.30;;;2.10;;
64842;SDS011;51310;52.198;5.422;2022-10-16T11:06:00;8.33;;;2.07;;
64842;SDS011;51310;52.198;5.422;2022-10-16T11:08:45;7.13;;;1.92;;
64842;SDS011;51310;52.198;5.422;2022-10-16T11:14:16;15.07;;;1.83;;
64842;SDS011;51310;52.198;5.422;2022-10-16T11:17:33;9.00;;;1.70;;
64842;SDS011;51310;52.198;5.422;2022-10-16T11:20:16;11.15;;;2.30;;
64842;SDS011;51310;52.198;5.422;2022-10-16T11:22:54;11.68;;;2.20;;
64842;SDS011;51310;52.198;5.422;2022-10-16T11:25:30;8.50;;;1.83;;
64842;SDS011;51310;52.198;5.422;2022-10-16T11:31:00;7.40;;;1.48;;
64842;SDS011;51310;52.198;5.422;2022-10-16T11:33:49;6.72;;;1.50;;
64842;SDS011;51310;52.198;5.422;2022-10-16T11:37:02;10.77;;;2.28;;
64842;SDS011;51310;52.198;5.422;2022-10-16T11:39:39;7.15;;;1.33;;
64842;SDS011;51310;52.198;5.422;2022-10-16T11:42:29;6.45;;;1.83;;
64842;SDS011;51310;52.198;5.422;2022-10-16T11:56:28;8.85;;;1.77;;
64842;SDS011;51310;52.198;5.422;2022-10-16T11:59:02;10.02;;;2.20;;
64842;SDS011;51310;52.198;5.422;2022-10-16T12:08:39;7.53;;;2.00;;
64842;SDS011;51310;52.198;5.422;2022-10-16T12:11:06;7.97;;;1.90;;
64842;SDS011;51310;52.198;5.422;2022-10-16T12:16:39;7.43;;;1.42;;
64842;SDS011;51310;52.198;5.422;2022-10-16T12:19:25;11.25;;;1.88;;
64842;SDS011;51310;52.198;5.422;2022-10-16T12:21:55;6.60;;;1.70;;
64842;SDS011;51310;52.198;5.422;2022-10-16T12:24:31;6.32;;;2.15;;
64842;SDS011;51310;52.198;5.422;2022-10-16T12:27:20;7.10;;;1.52;;
64842;SDS011;51310;52.198;5.422;2022-10-16T12:29:58;9.90;;;1.87;;
64842;SDS011;51310;52.198;5.422;2022-10-16T12:32:30;8.15;;;1.40;;
64842;SDS011;51310;52.198;5.422;2022-10-16T12:34:59;5.20;;;1.95;;
64842;SDS011;51310;52.198;5.422;2022-10-16T12:37:29;7.60;;;1.92;;
64842;SDS011;51310;52.198;5.422;2022-10-16T12:40:04;6.97;;;3.37;;
64842;SDS011;51310;52.198;5.422;2022-10-16T12:42:48;9.93;;;3.13;;
64842;SDS011;51310;52.198;5.422;2022-10-16T12:45:33;8.53;;;1.80;;
64842;SDS011;51310;52.198;5.422;2022-10-16T12:48:00;8.77;;;1.63;;
64842;SDS011;51310;52.198;5.422;2022-10-16T12:50:43;8.15;;;1.73;;
64842;SDS011;51310;52.198;5.422;2022-10-16T12:53:17;7.97;;;1.73;;
64842;SDS011;51310;52.198;5.422;2022-10-16T12:55:52;9.57;;;2.08;;
64842;SDS011;51310;52.198;5.422;2022-10-16T13:02:38;8.30;;;1.60;;
64842;SDS011;51310;52.198;5.422;2022-10-16T13:11:42;8.25;;;1.70;;
64842;SDS011;51310;52.198;5.422;2022-10-16T13:14:45;8.55;;;1.90;;
64842;SDS011;51310;52.198;5.422;2022-10-16T13:28:51;11.53;;;1.77;;
64842;SDS011;51310;52.198;5.422;2022-10-16T13:31:21;6.43;;;1.83;;
64842;SDS011;51310;52.198;5.422;2022-10-16T13:33:51;14.05;;;2.20;;
64842;SDS011;51310;52.198;5.422;2022-10-16T13:36:25;6.88;;;1.23;;
64842;SDS011;51310;52.198;5.422;2022-10-16T13:39:27;12.82;;;2.05;;
64842;SDS011;51310;52.198;5.422;2022-10-16T13:44:46;7.18;;;1.52;;
64842;SDS011;51310;52.198;5.422;2022-10-16T13:47:23;5.43;;;1.35;;
64842;SDS011;51310;52.198;5.422;2022-10-16T13:50:09;9.43;;;1.60;;
64842;SDS011;51310;52.198;5.422;2022-10-16T13:52:43;10.70;;;1.70;;
64842;SDS011;51310;52.198;5.422;2022-10-16T13:55:16;4.90;;;1.42;;
64842;SDS011;51310;52.198;5.422;2022-10-16T13:57:44;12.30;;;2.20;;
64842;SDS011;51310;52.198;5.422;2022-10-16T14:00:17;9.77;;;1.85;;
64842;SDS011;51310;52.198;5.422;2022-10-16T14:03:02;9.00;;;1.70;;
64842;SDS011;51310;52.198;5.422;2022-10-16T14:05:44;8.20;;;1.57;;
64842;SDS011;51310;52.198;5.422;2022-10-16T14:08:27;7.70;;;1.70;;
64842;SDS011;51310;52.198;5.422;2022-10-16T14:11:04;6.97;;;2.53;;
64842;SDS011;51310;52.198;5.422;2022-10-16T14:13:31;6.47;;;1.63;;
64842;SDS011;51310;52.198;5.422;2022-10-16T14:16:07;6.78;;;1.52;;
64842;SDS011;51310;52.198;5.422;2022-10-16T14:18:41;8.10;;;1.37;;
64842;SDS011;51310;52.198;5.422;2022-10-16T14:21:22;7.25;;;1.45;;
64842;SDS011;51310;52.198;5.422;2022-10-16T14:23:48;9.15;;;1.58;;
64842;SDS011;51310;52.198;5.422;2022-10-16T14:26:14;4.27;;;1.60;;
64842;SDS011;51310;52.198;5.422;2022-10-16T14:28:46;7.68;;;1.45;;
64842;SDS011;51310;52.198;5.422;2022-10-16T14:31:28;8.23;;;2.00;;
64842;SDS011;51310;52.198;5.422;2022-10-16T14:33:58;12.07;;;1.60;;
64842;SDS011;51310;52.198;5.422;2022-10-16T14:36:26;5.50;;;1.67;;
64842;SDS011;51310;52.198;5.422;2022-10-16T14:41:45;10.50;;;2.60;;
64842;SDS011;51310;52.198;5.422;2022-10-16T14:44:16;9.07;;;2.03;;
64842;SDS011;51310;52.198;5.422;2022-10-16T14:46:47;8.98;;;1.83;;
64842;SDS011;51310;52.198;5.422;2022-10-16T14:49:17;6.68;;;2.47;;
64842;SDS011;51310;52.198;5.422;2022-10-16T14:51:46;9.00;;;2.47;;
64842;SDS011;51310;52.198;5.422;2022-10-16T14:54:13;9.68;;;2.25;;
64842;SDS011;51310;52.198;5.422;2022-10-16T14:56:53;7.35;;;1.63;;
64842;SDS011;51310;52.198;5.422;2022-10-16T14:59:30;11.27;;;2.10;;
64842;SDS011;51310;52.198;5.422;2022-10-16T15:07:51;6.70;;;1.60;;
64842;SDS011;51310;52.198;5.422;2022-10-16T15:10:20;11.18;;;2.50;;
64842;SDS011;51310;52.198;5.422;2022-10-16T15:12:49;9.55;;;2.38;;
64842;SDS011;51310;52.198;5.422;2022-10-16T15:15:21;12.02;;;1.92;;
64842;SDS011;51310;52.198;5.422;2022-10-16T15:18:03;13.93;;;2.33;;
64842;SDS011;51310;52.198;5.422;2022-10-16T15:20:31;14.98;;;2.20;;
64842;SDS011;51310;52.198;5.422;2022-10-16T15:23:02;9.50;;;2.00;;
64842;SDS011;51310;52.198;5.422;2022-10-16T15:28:19;10.43;;;2.33;;
64842;SDS011;51310;52.198;5.422;2022-10-16T15:30:49;8.45;;;1.70;;
64842;SDS011;51310;52.198;5.422;2022-10-16T15:33:20;10.07;;;3.63;;
64842;SDS011;51310;52.198;5.422;2022-10-16T15:35:53;11.68;;;2.80;;
64842;SDS011;51310;52.198;5.422;2022-10-16T15:38:20;11.75;;;2.05;;
64842;SDS011;51310;52.198;5.422;2022-10-16T15:40:48;7.57;;;2.35;;
64842;SDS011;51310;52.198;5.422;2022-10-16T15:43:14;7.60;;;1.98;;
64842;SDS011;51310;52.198;5.422;2022-10-16T15:45:40;6.63;;;1.90;;
64842;SDS011;51310;52.198;5.422;2022-10-16T15:48:09;9.45;;;2.13;;
64842;SDS011;51310;52.198;5.422;2022-10-16T15:50:38;12.23;;;2.45;;
64842;SDS011;51310;52.198;5.422;2022-10-16T15:53:05;7.65;;;2.13;;
64842;SDS011;51310;52.198;5.422;2022-10-16T15:55:31;7.93;;;2.17;;
64842;SDS011;51310;52.198;5.422;2022-10-16T15:58:02;8.35;;;2.25;;
64842;SDS011;51310;52.198;5.422;2022-10-16T16:00:29;10.50;;;2.47;;
64842;SDS011;51310;52.198;5.422;2022-10-16T16:02:55;11.43;;;3.47;;
64842;SDS011;51310;52.198;5.422;2022-10-16T16:05:21;13.45;;;4.57;;
64842;SDS011;51310;52.198;5.422;2022-10-16T16:07:48;11.77;;;3.50;;
64842;SDS011;51310;52.198;5.422;2022-10-16T16:10:15;9.48;;;3.60;;
64842;SDS011;51310;52.198;5.422;2022-10-16T16:12:42;8.27;;;3.28;;
64842;SDS011;51310;52.198;5.422;2022-10-16T16:15:08;11.03;;;3.93;;
64842;SDS011;51310;52.198;5.422;2022-10-16T16:17:35;13.65;;;3.22;;
64842;SDS011;51310;52.198;5.422;2022-10-16T16:20:02;6.35;;;2.92;;
64842;SDS011;51310;52.198;5.422;2022-10-16T16:22:30;8.27;;;2.50;;
64842;SDS011;51310;52.198;5.422;2022-10-16T16:24:56;10.32;;;2.88;;
64842;SDS011;51310;52.198;5.422;2022-10-16T16:27:22;10.70;;;3.05;;
64842;SDS011;51310;52.198;5.422;2022-10-16T16:29:49;7.90;;;2.13;;
64842;SDS011;51310;52.198;5.422;2022-10-16T16:32:15;9.07;;;2.60;;
64842;SDS011;51310;52.198;5.422;2022-10-16T16:34:41;11.23;;;2.67;;
64842;SDS011;51310;52.198;5.422;2022-10-16T16:37:07;10.48;;;2.42;;
64842;SDS011;51310;52.198;5.422;2022-10-16T16:39:33;9.32;;;2.58;;
64842;SDS011;51310;52.198;5.422;2022-10-16T16:41:59;9.30;;;3.15;;
64842;SDS011;51310;52.198;5.422;2022-10-16T16:44:25;8.57;;;2.17;;
64842;SDS011;51310;52.198;5.422;2022-10-16T16:46:51;15.65;;;2.70;;
64842;SDS011;51310;52.198;5.422;2022-10-16T16:49:17;8.40;;;2.10;;
64842;SDS011;51310;52.198;5.422;2022-10-16T16:51:43;7.63;;;2.17;;
64842;SDS011;51310;52.198;5.422;2022-10-16T16:54:10;11.18;;;2.22;;
64842;SDS011;51310;52.198;5.422;2022-10-16T16:56:37;11.10;;;2.53;;
64842;SDS011;51310;52.198;5.422;2022-10-16T16:59:10;9.68;;;2.28;;
64842;SDS011;51310;52.198;5.422;2022-10-16T17:01:40;11.55;;;2.63;;
64842;SDS011;51310;52.198;5.422;2022-10-16T17:04:07;8.07;;;2.20;;
64842;SDS011;51310;52.198;5.422;2022-10-16T17:06:34;11.27;;;2.78;;
64842;SDS011;51310;52.198;5.422;2022-10-16T17:09:02;8.93;;;2.80;;
64842;SDS011;51310;52.198;5.422;2022-10-16T17:11:31;10.27;;;2.70;;
64842;SDS011;51310;52.198;5.422;2022-10-16T17:13:59;10.43;;;2.63;;
64842;SDS011;51310;52.198;5.422;2022-10-16T17:16:28;11.77;;;3.40;;
64842;SDS011;51310;52.198;5.422;2022-10-16T17:19:00;15.55;;;5.20;;
64842;SDS011;51310;52.198;5.422;2022-10-16T17:21:33;12.35;;;4.20;;